sensor_id;sensor_type;location;lat;lon;timestamp;P1;durP1;ratioP1;P2;durP2;ratioP2
82727;SDS011;72459;50.110;8.750;2023-09-30T00:00:23;11.48;;;2.60;;
82727;SDS011;72459;50.110;8.750;2023-09-30T00:02:49;8.63;;;3.10;;
82727;SDS011;72459;50.110;8.750;2023-09-30T00:05:15;4.65;;;2.38;;
82727;SDS011;72459;50.110;8.750;2023-09-30T00:07:40;6.53;;;2.55;;
82727;SDS011;72459;50.110;8.750;2023-09-30T00:10:06;7.60;;;2.42;;
82727;SDS011;72459;50.110;8.750;2023-09-30T00:12:32;6.50;;;2.75;;
82727;SDS011;72459;50.110;8.750;2023-09-30T00:14:57;8.52;;;2.60;;
82727;SDS011;72459;50.110;8.750;2023-09-30T00:17:25;6.40;;;2.67;;
82727;SDS011;72459;50.110;8.750;2023-09-30T00:19:52;5.68;;;2.58;;
82727;SDS011;72459;50.110;8.750;2023-09-30T00:22:18;6.90;;;2.75;;
82727;SDS011;72459;50.110;8.750;2023-09-30T00:24:43;6.75;;;2.72;;
82727;SDS011;72459;50.110;8.750;2023-09-30T00:27:09;6.60;;;2.53;;
82727;SDS011;72459;50.110;8.750;2023-09-30T00:29:34;6.85;;;2.65;;
82727;SDS011;72459;50.110;8.750;2023-09-30T00:32:00;8.07;;;2.47;;
82727;SDS011;72459;50.110;8.750;2023-09-30T00:34:25;7.80;;;2.33;;
82727;SDS011;72459;50.110;8.750;2023-09-30T00:36:51;7.97;;;2.37;;
82727;SDS011;72459;50.110;8.750;2023-09-30T00:39:16;9.70;;;2.58;;
82727;SDS011;72459;50.110;8.750;2023-09-30T00:41:42;5.40;;;2.90;;
82727;SDS011;72459;50.110;8.750;2023-09-30T00:44:07;6.80;;;2.83;;
82727;SDS011;72459;50.110;8.750;2023-09-30T00:46:33;6.47;;;2.67;;
82727;SDS011;72459;50.110;8.750;2023-09-30T00:49:01;7.15;;;2.63;;
82727;SDS011;72459;50.110;8.750;2023-09-30T00:51:27;6.53;;;2.33;;
82727;SDS011;72459;50.110;8.750;2023-09-30T00:53:54;8.73;;;2.63;;
82727;SDS011;72459;50.110;8.750;2023-09-30T00:56:23;4.90;;;2.50;;
82727;SDS011;72459;50.110;8.750;2023-09-30T00:58:51;6.38;;;2.63;;
82727;SDS011;72459;50.110;8.750;2023-09-30T01:01:16;8.45;;;3.22;;
82727;SDS011;72459;50.110;8.750;2023-09-30T01:03:45;9.25;;;2.90;;
82727;SDS011;72459;50.110;8.750;2023-09-30T01:06:11;7.57;;;2.70;;
82727;SDS011;72459;50.110;8.750;2023-09-30T01:08:37;6.85;;;3.03;;
82727;SDS011;72459;50.110;8.750;2023-09-30T01:11:03;8.02;;;3.25;;
82727;SDS011;72459;50.110;8.750;2023-09-30T01:13:36;10.85;;;3.22;;
82727;SDS011;72459;50.110;8.750;2023-09-30T01:16:03;9.30;;;3.03;;
82727;SDS011;72459;50.110;8.750;2023-09-30T01:18:32;6.60;;;2.88;;
82727;SDS011;72459;50.110;8.750;2023-09-30T01:21:02;8.18;;;3.28;;
82727;SDS011;72459;50.110;8.750;2023-09-30T01:23:30;9.02;;;3.53;;
82727;SDS011;72459;50.110;8.750;2023-09-30T01:26:01;8.05;;;3.17;;
82727;SDS011;72459;50.110;8.750;2023-09-30T01:28:29;8.20;;;3.28;;
82727;SDS011;72459;50.110;8.750;2023-09-30T01:30:55;9.13;;;3.17;;
82727;SDS011;72459;50.110;8.750;2023-09-30T01:33:20;8.15;;;3.47;;
82727;SDS011;72459;50.110;8.750;2023-09-30T01:35:46;8.68;;;3.70;;
82727;SDS011;72459;50.110;8.750;2023-09-30T01:38:11;8.80;;;3.33;;
82727;SDS011;72459;50.110;8.750;2023-09-30T01:40:36;7.38;;;3.00;;
82727;SDS011;72459;50.110;8.750;2023-09-30T01:43:05;9.23;;;3.40;;
82727;SDS011;72459;50.110;8.750;2023-09-30T01:45:30;7.25;;;3.45;;
82727;SDS011;72459;50.110;8.750;2023-09-30T01:47:55;9.20;;;3.45;;
82727;SDS011;72459;50.110;8.750;2023-09-30T01:50:21;7.22;;;3.08;;
82727;SDS011;72459;50.110;8.750;2023-09-30T01:52:46;10.30;;;3.23;;
82727;SDS011;72459;50.110;8.750;2023-09-30T01:55:12;6.60;;;3.53;;
82727;SDS011;72459;50.110;8.750;2023-09-30T01:57:37;8.50;;;3.90;;
82727;SDS011;72459;50.110;8.750;2023-09-30T02:00:03;8.07;;;3.70;;
82727;SDS011;72459;50.110;8.750;2023-09-30T02:02:30;8.18;;;3.25;;
82727;SDS011;72459;50.110;8.750;2023-09-30T02:04:55;8.77;;;3.40;;
82727;SDS011;72459;50.110;8.750;2023-09-30T02:07:22;8.15;;;3.35;;
82727;SDS011;72459;50.110;8.750;2023-09-30T02:09:47;7.30;;;3.47;;
82727;SDS011;72459;50.110;8.750;2023-09-30T02:12:14;8.40;;;3.47;;
82727;SDS011;72459;50.110;8.750;2023-09-30T02:14:39;7.80;;;3.50;;
82727;SDS011;72459;50.110;8.750;2023-09-30T02:17:05;9.20;;;3.13;;
82727;SDS011;72459;50.110;8.750;2023-09-30T02:19:30;7.03;;;3.35;;
82727;SDS011;72459;50.110;8.750;2023-09-30T02:21:59;7.28;;;3.33;;
82727;SDS011;72459;50.110;8.750;2023-09-30T02:24:25;9.80;;;3.55;;
82727;SDS011;72459;50.110;8.750;2023-09-30T02:26:50;7.22;;;3.42;;
82727;SDS011;72459;50.110;8.750;2023-09-30T02:29:15;8.87;;;3.53;;
82727;SDS011;72459;50.110;8.750;2023-09-30T02:31:41;7.70;;;2.90;;
82727;SDS011;72459;50.110;8.750;2023-09-30T02:34:07;11.53;;;3.80;;
82727;SDS011;72459;50.110;8.750;2023-09-30T02:36:33;9.57;;;3.55;;
82727;SDS011;72459;50.110;8.750;2023-09-30T02:39:01;5.05;;;2.88;;
82727;SDS011;72459;50.110;8.750;2023-09-30T02:41:26;6.75;;;2.95;;
82727;SDS011;72459;50.110;8.750;2023-09-30T02:43:51;8.40;;;3.33;;
82727;SDS011;72459;50.110;8.750;2023-09-30T02:46:17;8.00;;;3.35;;
82727;SDS011;72459;50.110;8.750;2023-09-30T02:48:42;8.70;;;3.80;;
82727;SDS011;72459;50.110;8.750;2023-09-30T02:51:11;9.90;;;3.35;;
82727;SDS011;72459;50.110;8.750;2023-09-30T02:53:37;10.07;;;3.75;;
82727;SDS011;72459;50.110;8.750;2023-09-30T02:56:03;8.18;;;3.20;;
82727;SDS011;72459;50.110;8.750;2023-09-30T02:58:29;8.70;;;2.90;;
82727;SDS011;72459;50.110;8.750;2023-09-30T03:00:55;6.45;;;2.63;;
82727;SDS011;72459;50.110;8.750;2023-09-30T03:03:20;6.85;;;2.90;;
82727;SDS011;72459;50.110;8.750;2023-09-30T03:05:49;9.35;;;4.18;;
82727;SDS011;72459;50.110;8.750;2023-09-30T03:08:15;7.10;;;3.33;;
82727;SDS011;72459;50.110;8.750;2023-09-30T03:10:40;8.95;;;3.03;;
82727;SDS011;72459;50.110;8.750;2023-09-30T03:13:06;9.40;;;3.47;;
82727;SDS011;72459;50.110;8.750;2023-09-30T03:15:34;6.47;;;3.25;;
82727;SDS011;72459;50.110;8.750;2023-09-30T03:18:02;6.75;;;2.80;;
82727;SDS011;72459;50.110;8.750;2023-09-30T03:20:28;9.55;;;3.40;;
82727;SDS011;72459;50.110;8.750;2023-09-30T03:22:56;8.88;;;3.47;;
82727;SDS011;72459;50.110;8.750;2023-09-30T03:25:22;11.48;;;4.35;;
82727;SDS011;72459;50.110;8.750;2023-09-30T03:27:48;9.15;;;3.40;;
82727;SDS011;72459;50.110;8.750;2023-09-30T03:30:14;8.15;;;3.28;;
82727;SDS011;72459;50.110;8.750;2023-09-30T03:32:44;8.15;;;3.75;;
82727;SDS011;72459;50.110;8.750;2023-09-30T03:35:10;9.00;;;3.15;;
82727;SDS011;72459;50.110;8.750;2023-09-30T03:37:40;6.47;;;3.33;;
82727;SDS011;72459;50.110;8.750;2023-09-30T03:40:06;8.07;;;3.33;;
82727;SDS011;72459;50.110;8.750;2023-09-30T03:42:45;8.77;;;3.88;;
82727;SDS011;72459;50.110;8.750;2023-09-30T03:45:12;9.35;;;4.10;;
82727;SDS011;72459;50.110;8.750;2023-09-30T03:47:39;10.82;;;4.20;;
82727;SDS011;72459;50.110;8.750;2023-09-30T03:50:06;10.52;;;4.70;;
82727;SDS011;72459;50.110;8.750;2023-09-30T03:52:37;10.07;;;4.45;;
82727;SDS011;72459;50.110;8.750;2023-09-30T03:55:04;8.45;;;4.28;;
82727;SDS011;72459;50.110;8.750;2023-09-30T03:57:31;8.90;;;4.82;;
82727;SDS011;72459;50.110;8.750;2023-09-30T03:59:59;10.10;;;4.43;;
82727;SDS011;72459;50.110;8.750;2023-09-30T04:02:25;10.43;;;4.60;;
82727;SDS011;72459;50.110;8.750;2023-09-30T04:04:51;7.88;;;4.00;;
82727;SDS011;72459;50.110;8.750;2023-09-30T04:07:18;10.30;;;3.70;;
82727;SDS011;72459;50.110;8.750;2023-09-30T04:09:44;7.80;;;3.90;;
82727;SDS011;72459;50.110;8.750;2023-09-30T04:12:09;12.00;;;3.83;;
82727;SDS011;72459;50.110;8.750;2023-09-30T04:14:36;10.20;;;3.97;;
82727;SDS011;72459;50.110;8.750;2023-09-30T04:17:01;7.13;;;3.77;;
82727;SDS011;72459;50.110;8.750;2023-09-30T04:19:26;10.82;;;3.88;;
82727;SDS011;72459;50.110;8.750;2023-09-30T04:21:55;10.60;;;3.45;;
82727;SDS011;72459;50.110;8.750;2023-09-30T04:24:21;9.93;;;3.80;;
82727;SDS011;72459;50.110;8.750;2023-09-30T04:26:47;7.78;;;4.07;;
82727;SDS011;72459;50.110;8.750;2023-09-30T04:29:13;10.30;;;4.28;;
82727;SDS011;72459;50.110;8.750;2023-09-30T04:31:39;6.90;;;3.47;;
82727;SDS011;72459;50.110;8.750;2023-09-30T04:34:06;10.35;;;4.60;;
82727;SDS011;72459;50.110;8.750;2023-09-30T04:36:32;8.07;;;3.75;;
82727;SDS011;72459;50.110;8.750;2023-09-30T04:39:00;10.68;;;4.03;;
82727;SDS011;72459;50.110;8.750;2023-09-30T04:41:26;10.05;;;3.58;;
82727;SDS011;72459;50.110;8.750;2023-09-30T04:43:51;7.18;;;3.95;;
82727;SDS011;72459;50.110;8.750;2023-09-30T04:46:17;9.23;;;4.13;;
82727;SDS011;72459;50.110;8.750;2023-09-30T04:51:13;11.70;;;4.03;;
82727;SDS011;72459;50.110;8.750;2023-09-30T04:53:41;8.80;;;4.05;;
82727;SDS011;72459;50.110;8.750;2023-09-30T04:56:07;10.82;;;5.00;;
82727;SDS011;72459;50.110;8.750;2023-09-30T04:58:32;10.32;;;4.57;;
82727;SDS011;72459;50.110;8.750;2023-09-30T05:00:57;9.37;;;4.20;;
82727;SDS011;72459;50.110;8.750;2023-09-30T05:03:23;8.88;;;4.32;;
82727;SDS011;72459;50.110;8.750;2023-09-30T05:05:50;13.32;;;5.32;;
82727;SDS011;72459;50.110;8.750;2023-09-30T05:08:23;8.23;;;4.30;;
82727;SDS011;72459;50.110;8.750;2023-09-30T05:10:49;8.70;;;4.32;;
82727;SDS011;72459;50.110;8.750;2023-09-30T05:13:14;12.85;;;5.25;;
82727;SDS011;72459;50.110;8.750;2023-09-30T05:15:40;13.83;;;6.73;;
82727;SDS011;72459;50.110;8.750;2023-09-30T05:18:06;9.18;;;5.13;;
82727;SDS011;72459;50.110;8.750;2023-09-30T05:20:33;11.38;;;5.50;;
82727;SDS011;72459;50.110;8.750;2023-09-30T05:23:01;13.10;;;5.43;;
82727;SDS011;72459;50.110;8.750;2023-09-30T05:25:27;9.65;;;5.28;;
82727;SDS011;72459;50.110;8.750;2023-09-30T05:27:53;8.52;;;4.90;;
82727;SDS011;72459;50.110;8.750;2023-09-30T05:30:19;12.65;;;5.65;;
82727;SDS011;72459;50.110;8.750;2023-09-30T05:32:45;14.18;;;6.20;;
82727;SDS011;72459;50.110;8.750;2023-09-30T05:35:11;10.82;;;6.28;;
82727;SDS011;72459;50.110;8.750;2023-09-30T05:37:39;15.80;;;6.53;;
82727;SDS011;72459;50.110;8.750;2023-09-30T05:40:08;11.55;;;6.45;;
82727;SDS011;72459;50.110;8.750;2023-09-30T05:42:45;10.15;;;5.90;;
82727;SDS011;72459;50.110;8.750;2023-09-30T05:45:11;12.10;;;6.35;;
82727;SDS011;72459;50.110;8.750;2023-09-30T05:47:40;12.93;;;6.88;;
82727;SDS011;72459;50.110;8.750;2023-09-30T05:50:06;15.13;;;8.02;;
82727;SDS011;72459;50.110;8.750;2023-09-30T05:52:32;13.27;;;6.35;;
82727;SDS011;72459;50.110;8.750;2023-09-30T05:54:57;13.80;;;6.38;;
82727;SDS011;72459;50.110;8.750;2023-09-30T05:57:23;13.77;;;7.15;;
82727;SDS011;72459;50.110;8.750;2023-09-30T05:59:48;12.88;;;6.97;;
82727;SDS011;72459;50.110;8.750;2023-09-30T06:02:14;13.90;;;6.80;;
82727;SDS011;72459;50.110;8.750;2023-09-30T06:04:40;17.75;;;7.25;;
82727;SDS011;72459;50.110;8.750;2023-09-30T06:07:05;14.65;;;7.10;;
82727;SDS011;72459;50.110;8.750;2023-09-30T06:09:31;13.93;;;6.85;;
82727;SDS011;72459;50.110;8.750;2023-09-30T06:11:56;15.93;;;7.23;;
82727;SDS011;72459;50.110;8.750;2023-09-30T06:14:22;15.15;;;7.40;;
82727;SDS011;72459;50.110;8.750;2023-09-30T06:16:47;14.57;;;6.85;;
82727;SDS011;72459;50.110;8.750;2023-09-30T06:19:13;11.07;;;6.65;;
82727;SDS011;72459;50.110;8.750;2023-09-30T06:21:38;10.07;;;5.60;;
82727;SDS011;72459;50.110;8.750;2023-09-30T06:24:04;9.00;;;5.90;;
82727;SDS011;72459;50.110;8.750;2023-09-30T06:26:30;12.60;;;6.20;;
82727;SDS011;72459;50.110;8.750;2023-09-30T06:28:56;10.82;;;5.90;;
82727;SDS011;72459;50.110;8.750;2023-09-30T06:31:21;15.10;;;5.68;;
82727;SDS011;72459;50.110;8.750;2023-09-30T06:33:48;13.52;;;6.00;;
82727;SDS011;72459;50.110;8.750;2023-09-30T06:36:13;11.80;;;6.63;;
82727;SDS011;72459;50.110;8.750;2023-09-30T06:38:39;15.02;;;5.97;;
82727;SDS011;72459;50.110;8.750;2023-09-30T06:41:07;15.55;;;6.55;;
82727;SDS011;72459;50.110;8.750;2023-09-30T06:43:33;12.02;;;5.85;;
82727;SDS011;72459;50.110;8.750;2023-09-30T06:46:06;11.65;;;6.30;;
82727;SDS011;72459;50.110;8.750;2023-09-30T06:48:35;12.25;;;5.97;;
82727;SDS011;72459;50.110;8.750;2023-09-30T06:51:01;11.60;;;5.95;;
82727;SDS011;72459;50.110;8.750;2023-09-30T06:53:26;11.18;;;5.97;;
82727;SDS011;72459;50.110;8.750;2023-09-30T06:55:53;12.55;;;5.93;;
82727;SDS011;72459;50.110;8.750;2023-09-30T06:58:23;12.10;;;5.82;;
82727;SDS011;72459;50.110;8.750;2023-09-30T07:00:52;10.95;;;5.93;;
82727;SDS011;72459;50.110;8.750;2023-09-30T07:03:20;10.63;;;5.95;;
82727;SDS011;72459;50.110;8.750;2023-09-30T07:05:46;11.18;;;6.20;;
82727;SDS011;72459;50.110;8.750;2023-09-30T07:08:14;11.90;;;5.93;;
82727;SDS011;72459;50.110;8.750;2023-09-30T07:10:41;11.95;;;6.10;;
82727;SDS011;72459;50.110;8.750;2023-09-30T07:13:06;11.63;;;6.38;;
82727;SDS011;72459;50.110;8.750;2023-09-30T07:15:32;11.88;;;5.57;;
82727;SDS011;72459;50.110;8.750;2023-09-30T07:17:58;13.57;;;6.60;;
82727;SDS011;72459;50.110;8.750;2023-09-30T07:20:23;12.77;;;6.30;;
82727;SDS011;72459;50.110;8.750;2023-09-30T07:22:48;10.48;;;6.03;;
82727;SDS011;72459;50.110;8.750;2023-09-30T07:25:14;14.02;;;6.25;;
82727;SDS011;72459;50.110;8.750;2023-09-30T07:27:42;9.90;;;5.75;;
82727;SDS011;72459;50.110;8.750;2023-09-30T07:30:08;13.00;;;6.45;;
82727;SDS011;72459;50.110;8.750;2023-09-30T07:32:35;11.57;;;5.82;;
82727;SDS011;72459;50.110;8.750;2023-09-30T07:35:00;10.60;;;5.93;;
82727;SDS011;72459;50.110;8.750;2023-09-30T07:37:26;12.88;;;5.90;;
82727;SDS011;72459;50.110;8.750;2023-09-30T07:39:52;10.10;;;5.32;;
82727;SDS011;72459;50.110;8.750;2023-09-30T07:42:17;13.03;;;5.90;;
82727;SDS011;72459;50.110;8.750;2023-09-30T07:44:42;10.50;;;5.47;;
82727;SDS011;72459;50.110;8.750;2023-09-30T07:47:08;10.77;;;4.82;;
82727;SDS011;72459;50.110;8.750;2023-09-30T07:49:37;7.47;;;4.45;;
82727;SDS011;72459;50.110;8.750;2023-09-30T07:52:03;7.80;;;4.40;;
82727;SDS011;72459;50.110;8.750;2023-09-30T07:54:28;11.15;;;5.07;;
82727;SDS011;72459;50.110;8.750;2023-09-30T07:56:54;14.60;;;5.40;;
82727;SDS011;72459;50.110;8.750;2023-09-30T07:59:20;9.93;;;4.50;;
82727;SDS011;72459;50.110;8.750;2023-09-30T08:01:47;9.57;;;3.85;;
82727;SDS011;72459;50.110;8.750;2023-09-30T08:04:15;13.55;;;4.53;;
82727;SDS011;72459;50.110;8.750;2023-09-30T08:06:43;6.80;;;3.38;;
82727;SDS011;72459;50.110;8.750;2023-09-30T08:09:09;8.85;;;3.67;;
82727;SDS011;72459;50.110;8.750;2023-09-30T08:11:38;10.32;;;3.80;;
82727;SDS011;72459;50.110;8.750;2023-09-30T08:14:04;8.43;;;3.55;;
82727;SDS011;72459;50.110;8.750;2023-09-30T08:16:34;10.93;;;3.72;;
82727;SDS011;72459;50.110;8.750;2023-09-30T08:19:00;7.80;;;2.78;;
82727;SDS011;72459;50.110;8.750;2023-09-30T08:21:26;9.10;;;3.92;;
82727;SDS011;72459;50.110;8.750;2023-09-30T08:23:51;9.93;;;4.50;;
82727;SDS011;72459;50.110;8.750;2023-09-30T08:26:17;7.40;;;3.38;;
82727;SDS011;72459;50.110;8.750;2023-09-30T08:28:44;7.85;;;3.85;;
82727;SDS011;72459;50.110;8.750;2023-09-30T08:31:09;7.30;;;3.13;;
82727;SDS011;72459;50.110;8.750;2023-09-30T08:33:37;6.97;;;3.50;;
82727;SDS011;72459;50.110;8.750;2023-09-30T08:36:06;7.10;;;3.17;;
82727;SDS011;72459;50.110;8.750;2023-09-30T08:38:34;9.57;;;3.80;;
82727;SDS011;72459;50.110;8.750;2023-09-30T08:41:00;9.70;;;3.50;;
82727;SDS011;72459;50.110;8.750;2023-09-30T08:43:27;8.60;;;3.78;;
82727;SDS011;72459;50.110;8.750;2023-09-30T08:45:55;8.23;;;3.45;;
82727;SDS011;72459;50.110;8.750;2023-09-30T08:48:22;8.68;;;3.28;;
82727;SDS011;72459;50.110;8.750;2023-09-30T08:50:51;7.82;;;3.92;;
82727;SDS011;72459;50.110;8.750;2023-09-30T08:53:19;7.50;;;3.90;;
82727;SDS011;72459;50.110;8.750;2023-09-30T08:55:47;8.23;;;3.60;;
82727;SDS011;72459;50.110;8.750;2023-09-30T08:58:14;9.80;;;3.55;;
82727;SDS011;72459;50.110;8.750;2023-09-30T09:00:42;10.05;;;4.47;;
82727;SDS011;72459;50.110;8.750;2023-09-30T09:03:07;9.75;;;4.32;;
82727;SDS011;72459;50.110;8.750;2023-09-30T09:05:33;8.32;;;3.35;;
82727;SDS011;72459;50.110;8.750;2023-09-30T09:07:59;10.63;;;3.90;;
82727;SDS011;72459;50.110;8.750;2023-09-30T09:10:24;6.95;;;3.80;;
82727;SDS011;72459;50.110;8.750;2023-09-30T09:12:56;7.97;;;3.50;;
82727;SDS011;72459;50.110;8.750;2023-09-30T09:17:49;8.80;;;3.67;;
82727;SDS011;72459;50.110;8.750;2023-09-30T09:20:17;6.40;;;3.55;;
82727;SDS011;72459;50.110;8.750;2023-09-30T09:22:48;8.52;;;4.03;;
82727;SDS011;72459;50.110;8.750;2023-09-30T09:25:19;8.70;;;4.13;;
82727;SDS011;72459;50.110;8.750;2023-09-30T09:27:48;9.07;;;3.80;;
82727;SDS011;72459;50.110;8.750;2023-09-30T09:30:15;7.55;;;3.47;;
82727;SDS011;72459;50.110;8.750;2023-09-30T09:35:28;9.75;;;4.22;;
82727;SDS011;72459;50.110;8.750;2023-09-30T09:40:22;10.05;;;3.33;;
82727;SDS011;72459;50.110;8.750;2023-09-30T09:42:51;6.55;;;3.38;;
82727;SDS011;72459;50.110;8.750;2023-09-30T09:45:20;7.05;;;3.20;;
82727;SDS011;72459;50.110;8.750;2023-09-30T09:47:50;9.15;;;3.63;;
82727;SDS011;72459;50.110;8.750;2023-09-30T09:50:22;10.05;;;3.80;;
82727;SDS011;72459;50.110;8.750;2023-09-30T09:52:48;7.10;;;3.67;;
82727;SDS011;72459;50.110;8.750;2023-09-30T09:55:16;7.55;;;3.90;;
82727;SDS011;72459;50.110;8.750;2023-09-30T09:57:47;7.43;;;3.42;;
82727;SDS011;72459;50.110;8.750;2023-09-30T10:00:31;8.07;;;3.40;;
82727;SDS011;72459;50.110;8.750;2023-09-30T10:02:58;9.35;;;3.78;;
82727;SDS011;72459;50.110;8.750;2023-09-30T10:05:25;10.32;;;4.30;;
82727;SDS011;72459;50.110;8.750;2023-09-30T10:10:29;8.68;;;3.33;;
82727;SDS011;72459;50.110;8.750;2023-09-30T10:12:56;8.15;;;3.00;;
82727;SDS011;72459;50.110;8.750;2023-09-30T10:20:40;7.03;;;2.78;;
82727;SDS011;72459;50.110;8.750;2023-09-30T10:25:43;7.30;;;3.33;;
82727;SDS011;72459;50.110;8.750;2023-09-30T10:31:18;9.45;;;3.70;;
82727;SDS011;72459;50.110;8.750;2023-09-30T10:36:34;6.22;;;3.50;;
82727;SDS011;72459;50.110;8.750;2023-09-30T10:39:03;7.18;;;3.38;;
82727;SDS011;72459;50.110;8.750;2023-09-30T10:46:50;5.93;;;2.67;;
82727;SDS011;72459;50.110;8.750;2023-09-30T10:51:51;7.47;;;2.90;;
82727;SDS011;72459;50.110;8.750;2023-09-30T10:54:28;7.03;;;2.83;;
82727;SDS011;72459;50.110;8.750;2023-09-30T10:56:59;9.35;;;3.00;;
82727;SDS011;72459;50.110;8.750;2023-09-30T10:59:27;7.97;;;3.10;;
82727;SDS011;72459;50.110;8.750;2023-09-30T11:01:55;5.88;;;3.17;;
82727;SDS011;72459;50.110;8.750;2023-09-30T11:04:21;7.50;;;3.03;;
82727;SDS011;72459;50.110;8.750;2023-09-30T11:06:47;8.90;;;3.10;;
82727;SDS011;72459;50.110;8.750;2023-09-30T11:09:19;6.70;;;3.30;;
82727;SDS011;72459;50.110;8.750;2023-09-30T11:11:50;6.90;;;3.65;;
82727;SDS011;72459;50.110;8.750;2023-09-30T11:14:19;6.15;;;3.30;;
82727;SDS011;72459;50.110;8.750;2023-09-30T11:16:45;7.32;;;3.35;;
82727;SDS011;72459;50.110;8.750;2023-09-30T11:19:11;5.10;;;3.08;;
82727;SDS011;72459;50.110;8.750;2023-09-30T11:21:38;8.43;;;3.70;;
82727;SDS011;72459;50.110;8.750;2023-09-30T11:24:05;6.82;;;2.92;;
82727;SDS011;72459;50.110;8.750;2023-09-30T11:26:32;7.75;;;3.10;;
82727;SDS011;72459;50.110;8.750;2023-09-30T11:29:04;6.85;;;3.45;;
82727;SDS011;72459;50.110;8.750;2023-09-30T11:31:46;5.65;;;2.95;;
82727;SDS011;72459;50.110;8.750;2023-09-30T11:34:13;9.05;;;3.63;;
82727;SDS011;72459;50.110;8.750;2023-09-30T11:36:47;7.05;;;2.95;;
82727;SDS011;72459;50.110;8.750;2023-09-30T11:39:25;7.50;;;2.65;;
82727;SDS011;72459;50.110;8.750;2023-09-30T11:41:52;6.72;;;2.80;;
82727;SDS011;72459;50.110;8.750;2023-09-30T11:44:20;5.13;;;2.15;;
82727;SDS011;72459;50.110;8.750;2023-09-30T11:46:47;7.93;;;2.78;;
82727;SDS011;72459;50.110;8.750;2023-09-30T11:49:35;5.43;;;2.50;;
82727;SDS011;72459;50.110;8.750;2023-09-30T11:52:12;6.55;;;2.70;;
82727;SDS011;72459;50.110;8.750;2023-09-30T11:57:12;6.95;;;2.58;;
82727;SDS011;72459;50.110;8.750;2023-09-30T11:59:44;3.70;;;2.22;;
82727;SDS011;72459;50.110;8.750;2023-09-30T12:02:10;7.68;;;3.05;;
82727;SDS011;72459;50.110;8.750;2023-09-30T12:04:37;7.07;;;2.95;;
82727;SDS011;72459;50.110;8.750;2023-09-30T12:07:03;5.90;;;2.67;;
82727;SDS011;72459;50.110;8.750;2023-09-30T12:09:29;5.90;;;2.60;;
82727;SDS011;72459;50.110;8.750;2023-09-30T12:14:22;5.18;;;2.28;;
82727;SDS011;72459;50.110;8.750;2023-09-30T12:16:49;6.72;;;2.58;;
82727;SDS011;72459;50.110;8.750;2023-09-30T12:19:15;6.22;;;2.50;;
82727;SDS011;72459;50.110;8.750;2023-09-30T12:21:44;6.60;;;2.63;;
82727;SDS011;72459;50.110;8.750;2023-09-30T12:24:13;5.15;;;2.13;;
82727;SDS011;72459;50.110;8.750;2023-09-30T12:26:47;4.57;;;2.33;;
82727;SDS011;72459;50.110;8.750;2023-09-30T12:29:17;5.15;;;2.80;;
82727;SDS011;72459;50.110;8.750;2023-09-30T12:31:44;5.95;;;2.30;;
82727;SDS011;72459;50.110;8.750;2023-09-30T12:34:10;5.38;;;2.10;;
82727;SDS011;72459;50.110;8.750;2023-09-30T12:36:37;4.18;;;2.13;;
82727;SDS011;72459;50.110;8.750;2023-09-30T12:39:03;5.03;;;2.25;;
82727;SDS011;72459;50.110;8.750;2023-09-30T12:41:35;6.80;;;2.50;;
82727;SDS011;72459;50.110;8.750;2023-09-30T12:44:05;3.58;;;2.20;;
82727;SDS011;72459;50.110;8.750;2023-09-30T12:46:30;4.68;;;1.92;;
82727;SDS011;72459;50.110;8.750;2023-09-30T12:48:59;5.22;;;2.28;;
82727;SDS011;72459;50.110;8.750;2023-09-30T12:51:25;3.00;;;1.92;;
82727;SDS011;72459;50.110;8.750;2023-09-30T12:53:50;5.00;;;2.10;;
82727;SDS011;72459;50.110;8.750;2023-09-30T12:56:16;5.50;;;2.25;;
82727;SDS011;72459;50.110;8.750;2023-09-30T12:58:41;7.13;;;2.53;;
82727;SDS011;72459;50.110;8.750;2023-09-30T13:01:06;5.15;;;2.20;;
82727;SDS011;72459;50.110;8.750;2023-09-30T13:03:32;4.78;;;2.28;;
82727;SDS011;72459;50.110;8.750;2023-09-30T13:05:58;4.20;;;2.28;;
82727;SDS011;72459;50.110;8.750;2023-09-30T13:08:23;4.07;;;1.80;;
82727;SDS011;72459;50.110;8.750;2023-09-30T13:10:49;5.47;;;1.90;;
82727;SDS011;72459;50.110;8.750;2023-09-30T13:13:15;3.20;;;1.60;;
82727;SDS011;72459;50.110;8.750;2023-09-30T13:15:47;4.50;;;2.25;;
82727;SDS011;72459;50.110;8.750;2023-09-30T13:18:12;5.95;;;2.17;;
82727;SDS011;72459;50.110;8.750;2023-09-30T13:20:38;3.88;;;2.15;;
82727;SDS011;72459;50.110;8.750;2023-09-30T13:23:04;3.97;;;1.67;;
82727;SDS011;72459;50.110;8.750;2023-09-30T13:25:29;3.63;;;1.95;;
82727;SDS011;72459;50.110;8.750;2023-09-30T13:27:55;5.45;;;2.30;;
82727;SDS011;72459;50.110;8.750;2023-09-30T13:30:20;6.03;;;2.20;;
82727;SDS011;72459;50.110;8.750;2023-09-30T13:35:18;4.88;;;1.83;;
82727;SDS011;72459;50.110;8.750;2023-09-30T13:37:50;3.67;;;1.50;;
82727;SDS011;72459;50.110;8.750;2023-09-30T13:40:16;3.63;;;1.85;;
82727;SDS011;72459;50.110;8.750;2023-09-30T13:42:44;3.92;;;2.00;;
82727;SDS011;72459;50.110;8.750;2023-09-30T13:45:20;5.07;;;2.70;;
82727;SDS011;72459;50.110;8.750;2023-09-30T13:47:47;3.75;;;2.38;;
82727;SDS011;72459;50.110;8.750;2023-09-30T13:50:14;6.43;;;3.33;;
82727;SDS011;72459;50.110;8.750;2023-09-30T13:52:50;6.00;;;2.53;;
82727;SDS011;72459;50.110;8.750;2023-09-30T13:55:26;5.97;;;1.88;;
82727;SDS011;72459;50.110;8.750;2023-09-30T13:58:00;6.15;;;2.30;;
82727;SDS011;72459;50.110;8.750;2023-09-30T14:00:46;4.97;;;2.38;;
82727;SDS011;72459;50.110;8.750;2023-09-30T14:03:18;5.20;;;1.85;;
82727;SDS011;72459;50.110;8.750;2023-09-30T14:05:57;7.00;;;2.70;;
82727;SDS011;72459;50.110;8.750;2023-09-30T14:08:26;5.13;;;2.45;;
82727;SDS011;72459;50.110;8.750;2023-09-30T14:10:59;4.47;;;2.80;;
82727;SDS011;72459;50.110;8.750;2023-09-30T14:13:35;6.35;;;3.15;;
82727;SDS011;72459;50.110;8.750;2023-09-30T14:16:10;4.28;;;2.20;;
82727;SDS011;72459;50.110;8.750;2023-09-30T14:18:38;5.00;;;2.65;;
82727;SDS011;72459;50.110;8.750;2023-09-30T14:21:07;4.63;;;2.40;;
82727;SDS011;72459;50.110;8.750;2023-09-30T14:23:33;5.38;;;2.60;;
82727;SDS011;72459;50.110;8.750;2023-09-30T14:26:01;5.80;;;2.65;;
82727;SDS011;72459;50.110;8.750;2023-09-30T14:28:36;3.72;;;2.17;;
82727;SDS011;72459;50.110;8.750;2023-09-30T14:31:22;7.35;;;2.30;;
82727;SDS011;72459;50.110;8.750;2023-09-30T14:33:58;5.13;;;2.10;;
82727;SDS011;72459;50.110;8.750;2023-09-30T14:36:27;4.53;;;2.10;;
82727;SDS011;72459;50.110;8.750;2023-09-30T14:39:00;5.97;;;2.47;;
82727;SDS011;72459;50.110;8.750;2023-09-30T14:41:41;5.38;;;1.75;;
82727;SDS011;72459;50.110;8.750;2023-09-30T14:44:20;3.75;;;1.80;;
82727;SDS011;72459;50.110;8.750;2023-09-30T14:46:51;3.65;;;1.40;;
82727;SDS011;72459;50.110;8.750;2023-09-30T14:49:30;4.18;;;1.50;;
82727;SDS011;72459;50.110;8.750;2023-09-30T14:52:08;2.92;;;1.23;;
82727;SDS011;72459;50.110;8.750;2023-09-30T14:57:25;2.75;;;1.23;;
82727;SDS011;72459;50.110;8.750;2023-09-30T14:59:50;3.67;;;1.17;;
82727;SDS011;72459;50.110;8.750;2023-09-30T15:02:16;2.60;;;1.27;;
82727;SDS011;72459;50.110;8.750;2023-09-30T15:04:42;2.42;;;1.45;;
82727;SDS011;72459;50.110;8.750;2023-09-30T15:07:07;5.22;;;1.48;;
82727;SDS011;72459;50.110;8.750;2023-09-30T15:09:33;3.30;;;1.55;;
82727;SDS011;72459;50.110;8.750;2023-09-30T15:11:58;4.78;;;1.38;;
82727;SDS011;72459;50.110;8.750;2023-09-30T15:14:24;3.50;;;1.75;;
82727;SDS011;72459;50.110;8.750;2023-09-30T15:16:49;2.13;;;1.30;;
82727;SDS011;72459;50.110;8.750;2023-09-30T15:19:15;4.00;;;1.13;;
82727;SDS011;72459;50.110;8.750;2023-09-30T15:21:40;2.83;;;1.40;;
82727;SDS011;72459;50.110;8.750;2023-09-30T15:24:06;6.57;;;1.63;;
82727;SDS011;72459;50.110;8.750;2023-09-30T15:26:32;3.83;;;1.50;;
82727;SDS011;72459;50.110;8.750;2023-09-30T15:28:58;4.18;;;1.40;;